Jamestown, Canada
Current Conditions -  °F | °C
As of 6:00 PM on Tuesday 21 Oct 2014 (Local Time) from CYQX Reporting Station
Broken Clouds Broken Clouds  
Wind Chill:   Ceiling: 4500
Heat Index:   Visibility: 20mi
Dew Point:   Wind: 12mph
Humidity: 66%   Direction: 280°W
Pressure: 30.08"   Gusts: NA
Location:  48.43°N, 53.8°W
Report Text: CYQX 212000Z 28010KT 20SM FEW038 BKN045 09/03 A3008 RMK SC1SC6 SF/CI SLP191
Loading
Personal Weather Stations






























Interactive Weather Map
Tropical Storm Tracking
New forecast layout! Learn more

10-Day Weather Forecast

Advertisements
Track Severe Weather on mobile